Time;durP1;ratioP1;P1;durP2;ratioP2;P2;SDS_P1;SDS_P2;PMS_P1;PMS_P2;Temp;Humidity;BMP_temperature;BMP_pressure;BME280_temperature;BME280_humidity;BME280_pressure;Samples;Min_cycle;Max_cycle;Signal;HPM_P1;HPM_P2
2020/12/24 00:00:41;;;;;;;1.43;1.37;;;;;;;-3.58;81.40;100765.23;1785596;80;21040;-69
2020/12/24 00:03:09;;;;;;;1.60;1.50;;;;;;;-3.57;81.47;100751.11;1762939;81;21537;-69
2020/12/24 00:05:36;;;;;;;2.33;2.13;;;;;;;-3.56;81.53;100754.16;1785777;80;20974;-69
2020/12/24 00:08:04;;;;;;;3.03;2.43;;;;;;;-3.55;81.60;100759.83;1762870;81;21013;-68
2020/12/24 00:10:32;;;;;;;1.87;1.70;;;;;;;-3.53;81.70;100770.34;1785738;80;21025;-69
2020/12/24 00:13:00;;;;;;;1.50;1.40;;;;;;;-3.52;81.76;100771.61;1785703;80;21456;-69
2020/12/24 00:15:28;;;;;;;2.40;2.07;;;;;;;-3.49;81.78;100770.61;1785667;80;21037;-68
2020/12/24 00:17:56;;;;;;;1.97;1.87;;;;;;;-3.49;81.82;100768.84;1763093;81;21017;-68
2020/12/24 00:20:24;;;;;;;1.70;1.60;;;;;;;-3.45;81.87;100767.78;1787529;78;21007;-70
2020/12/24 00:22:52;;;;;;;2.40;1.47;;;;;;;-3.43;81.92;100761.12;1788003;80;21573;-68
2020/12/24 00:25:20;;;;;;;2.60;2.40;;;;;;;-3.41;81.95;100761.91;1788018;80;21654;-68
2020/12/24 00:27:48;;;;;;;3.20;2.23;;;;;;;-3.40;81.98;100763.61;1786053;80;20988;-69
2020/12/24 00:30:16;;;;;;;1.43;1.33;;;;;;;-3.41;82.02;100763.23;1764529;80;20921;-69
2020/12/24 00:32:44;;;;;;;5.77;2.40;;;;;;;-3.41;82.08;100765.02;1764662;81;21545;-69
2020/12/24 00:35:12;;;;;;;2.63;1.73;;;;;;;-3.39;82.14;100763.17;1764699;81;21561;-69
2020/12/24 00:37:42;;;;;;;2.30;2.13;;;;;;;-3.38;82.23;100764.88;1764625;80;21173;-68
2020/12/24 00:40:09;;;;;;;3.50;2.90;;;;;;;-3.40;82.30;100739.81;1764705;81;21561;-68
2020/12/24 00:42:37;;;;;;;4.00;2.97;;;;;;;-3.42;82.42;100751.39;1771693;79;21547;-69
2020/12/24 00:45:05;;;;;;;4.53;3.50;;;;;;;-3.42;82.54;100744.78;1779070;79;21061;-69
2020/12/24 00:47:33;;;;;;;8.23;3.73;;;;;;;-3.41;82.57;100735.46;1779091;80;21013;-67
2020/12/24 00:50:01;;;;;;;6.10;2.97;;;;;;;-3.42;82.67;100738.17;1779112;79;21382;-67
2020/12/24 00:52:30;;;;;;;4.70;3.20;;;;;;;-3.40;82.73;100735.84;1779071;80;21045;-69
2020/12/24 00:54:58;;;;;;;3.87;3.00;;;;;;;-3.40;82.74;100745.09;1779127;79;20994;-69
2020/12/24 00:57:26;;;;;;;3.37;2.60;;;;;;;-3.41;82.78;100739.90;1778868;79;21485;-68
2020/12/24 00:59:54;;;;;;;1.97;1.87;;;;;;;-3.41;82.78;100741.22;1779144;80;21029;-68
2020/12/24 01:02:22;;;;;;;7.47;3.57;;;;;;;-3.41;82.81;100733.29;1779054;79;21040;-68
2020/12/24 01:04:50;;;;;;;3.63;2.60;;;;;;;-3.42;82.83;100734.20;1779041;80;21539;-69
2020/12/24 01:07:18;;;;;;;5.80;3.33;;;;;;;-3.45;82.89;100734.73;1779138;79;21021;-69
2020/12/24 01:09:47;;;;;;;4.53;2.77;;;;;;;-3.45;82.88;100737.38;1779003;79;20945;-69
2020/12/24 01:12:15;;;;;;;3.40;2.57;;;;;;;-3.44;82.91;100736.91;1779123;80;21741;-69
2020/12/24 01:14:44;;;;;;;5.67;2.93;;;;;;;-3.43;82.93;100733.35;1778956;80;21222;-70
2020/12/24 01:17:12;;;;;;;2.50;2.23;;;;;;;-3.42;82.97;100731.09;1778963;79;21048;-69
2020/12/24 01:19:40;;;;;;;2.83;2.40;;;;;;;-3.42;83.01;100729.77;1805666;78;21021;-68
2020/12/24 01:22:07;;;;;;;5.37;3.33;;;;;;;-3.45;83.04;100721.52;1813617;79;20954;-69
2020/12/24 01:24:36;;;;;;;2.47;2.17;;;;;;;-3.45;83.09;100722.84;1790068;80;21657;-69
2020/12/24 01:27:04;;;;;;;1.87;1.73;;;;;;;-3.47;83.07;100706.18;1813551;79;21659;-69
2020/12/24 01:29:32;;;;;;;2.27;2.07;;;;;;;-3.46;83.04;100707.88;1776881;78;20984;-69
2020/12/24 01:32:00;;;;;;;3.47;2.00;;;;;;;-3.44;83.05;100707.82;1766139;81;21026;-69
2020/12/24 01:34:28;;;;;;;1.97;1.87;;;;;;;-3.46;83.08;100713.17;1766175;81;20888;-69
2020/12/24 01:37:03;;;;;;;2.07;1.70;;;;;;;-3.47;83.12;100708.83;1803105;79;20982;-69
2020/12/24 01:39:31;;;;;;;4.10;1.90;;;;;;;-3.47;83.13;100711.47;1814057;79;21661;-68
2020/12/24 01:41:59;;;;;;;2.17;1.70;;;;;;;-3.46;83.16;100715.81;1816653;78;21033;-68
2020/12/24 01:44:27;;;;;;;4.93;2.53;;;;;;;-3.43;83.22;100709.55;1820159;78;20890;-69
2020/12/24 01:46:54;;;;;;;3.67;2.43;;;;;;;-3.39;83.29;100702.34;1795914;79;21016;-69
2020/12/24 01:49:22;;;;;;;3.20;2.07;;;;;;;-3.39;83.28;100709.81;1828593;78;20977;-68
2020/12/24 01:51:56;;;;;;;1.80;1.57;;;;;;;-3.38;83.26;100713.30;1795945;80;21775;-69
2020/12/24 01:54:25;;;;;;;2.10;1.90;;;;;;;-3.41;83.25;100709.02;1828436;78;21001;-69
2020/12/24 01:56:53;;;;;;;2.57;2.00;;;;;;;-3.42;83.24;100716.55;1796059;80;21557;-69
2020/12/24 01:59:23;;;;;;;1.80;1.70;;;;;;;-3.44;83.27;100712.63;1828579;78;21554;-69
2020/12/24 02:01:51;;;;;;;1.33;1.30;;;;;;;-3.44;83.22;100706.50;1796040;80;21535;-69
2020/12/24 02:04:19;;;;;;;2.47;1.70;;;;;;;-3.46;83.25;100706.56;1828555;78;21177;-69
2020/12/24 02:06:50;;;;;;;2.37;2.07;;;;;;;-3.46;83.30;100707.03;1795847;80;21013;-69
2020/12/24 02:09:18;;;;;;;1.73;1.63;;;;;;;-3.47;83.31;100710.59;1828486;78;20933;-69
2020/12/24 02:11:46;;;;;;;3.63;2.13;;;;;;;-3.48;83.30;100702.27;1795982;79;21005;-69
2020/12/24 02:14:13;;;;;;;3.33;2.00;;;;;;;-3.49;83.33;100709.36;1828469;78;21533;-67
2020/12/24 02:16:41;;;;;;;2.70;2.37;;;;;;;-3.49;83.37;100711.12;1796014;80;21564;-69
2020/12/24 02:19:09;;;;;;;2.67;2.10;;;;;;;-3.51;83.43;100710.33;1807663;78;21532;-69
2020/12/24 02:21:37;;;;;;;2.50;2.27;;;;;;;-3.53;83.44;100714.36;1795884;80;20992;-69
2020/12/24 02:24:05;;;;;;;5.50;3.17;;;;;;;-3.52;83.43;100705.52;1803100;78;21037;-68
2020/12/24 02:26:34;;;;;;;2.20;1.73;;;;;;;-3.50;83.41;100700.16;1809518;79;20981;-69
2020/12/24 02:29:02;;;;;;;4.17;2.83;;;;;;;-3.48;83.42;100701.80;1804873;79;21646;-69
2020/12/24 02:31:30;;;;;;;2.60;2.40;;;;;;;-3.47;83.39;100694.72;1796042;79;21538;-69
2020/12/24 02:33:57;;;;;;;2.43;2.07;;;;;;;-3.49;83.37;100697.46;1828546;78;20985;-69
2020/12/24 02:36:25;;;;;;;4.33;3.17;;;;;;;-3.49;83.35;100682.03;1795824;80;20996;-69
2020/12/24 02:38:53;;;;;;;7.00;3.60;;;;;;;-3.52;83.36;100687.00;1828570;78;21001;-70
2020/12/24 02:41:21;;;;;;;3.13;2.13;;;;;;;-3.55;83.34;100687.13;1795893;80;21788;-68
2020/12/24 02:43:50;;;;;;;3.60;2.40;;;;;;;-3.57;83.39;100692.95;1807482;79;20950;-69
2020/12/24 02:46:17;;;;;;;2.80;2.60;;;;;;;-3.56;83.40;100697.77;1795990;80;21004;-69
2020/12/24 02:48:45;;;;;;;2.30;2.13;;;;;;;-3.59;83.41;100696.56;1828430;78;21562;-69
2020/12/24 02:51:16;;;;;;;1.73;1.63;;;;;;;-3.60;83.42;100705.44;1796002;80;21537;-69
2020/12/24 02:53:44;;;;;;;2.30;2.10;;;;;;;-3.59;83.41;100707.14;1807857;79;21854;-68
2020/12/24 02:56:12;;;;;;;3.67;2.00;;;;;;;-3.58;83.40;100707.55;1795721;80;21629;-70
2020/12/24 02:58:40;;;;;;;1.87;1.50;;;;;;;-3.61;83.41;100707.23;1774877;79;21031;-69
2020/12/24 03:01:07;;;;;;;2.43;2.23;;;;;;;-3.62;83.40;100710.78;1758499;81;21040;-69
2020/12/24 03:03:36;;;;;;;1.93;1.83;;;;;;;-3.61;83.41;100708.55;1780646;80;21535;-68
2020/12/24 03:06:03;;;;;;;5.17;1.73;;;;;;;-3.60;83.41;100707.61;1758660;81;22664;-69
2020/12/24 03:08:31;;;;;;;2.63;2.43;;;;;;;-3.59;83.39;100708.02;1780288;79;21029;-69
2020/12/24 03:10:59;;;;;;;2.33;1.50;;;;;;;-3.61;83.38;100703.27;1762800;81;20972;-69
2020/12/24 03:13:27;;;;;;;1.57;1.47;;;;;;;-3.61;83.40;100712.52;1794264;80;21609;-69
2020/12/24 03:15:55;;;;;;;1.00;1.00;;;;;;;-3.61;83.39;100707.23;1762973;81;21562;-69
2020/12/24 03:18:23;;;;;;;2.83;2.07;;;;;;;-3.63;83.44;100711.69;1774557;80;21209;-69
2020/12/24 03:20:51;;;;;;;1.77;1.27;;;;;;;-3.64;83.50;100708.67;1795802;80;20969;-69
2020/12/24 03:23:19;;;;;;;1.40;1.30;;;;;;;-3.67;83.51;100714.08;1795798;80;20979;-70
2020/12/24 03:25:46;;;;;;;3.20;2.30;;;;;;;-3.68;83.55;100712.38;1795849;80;20938;-68
2020/12/24 03:28:14;;;;;;;2.23;1.50;;;;;;;-3.68;83.57;100707.09;1795940;80;21523;-68
2020/12/24 03:30:42;;;;;;;1.13;1.03;;;;;;;-3.70;83.55;100711.55;1795855;80;21136;-68
2020/12/24 03:33:10;;;;;;;1.37;1.07;;;;;;;-3.73;83.58;100720.48;1795759;80;21016;-68
2020/12/24 03:35:38;;;;;;;1.70;1.60;;;;;;;-3.73;83.60;100718.31;1795873;80;20982;-69
2020/12/24 03:38:05;;;;;;;1.43;1.33;;;;;;;-3.74;83.59;100714.78;1795842;80;20985;-69
2020/12/24 03:40:33;;;;;;;1.47;1.37;;;;;;;-3.75;83.64;100714.84;1795938;80;20977;-69
2020/12/24 03:43:01;;;;;;;1.40;1.30;;;;;;;-3.79;83.71;100715.44;1794342;79;21367;-69
2020/12/24 03:45:29;;;;;;;1.50;1.40;;;;;;;-3.80;83.77;100716.38;1789947;80;21052;-68
2020/12/24 03:47:56;;;;;;;1.40;1.30;;;;;;;-3.81;83.84;100713.32;1790000;80;20941;-69
2020/12/24 03:50:26;;;;;;;1.63;1.53;;;;;;;-3.79;83.94;100715.91;1785037;80;20946;-69
2020/12/24 03:52:54;;;;;;;1.37;1.27;;;;;;;-3.78;83.97;100718.48;1790039;80;21649;-69
2020/12/24 03:55:22;;;;;;;4.27;1.83;;;;;;;-3.78;84.03;100709.70;1789853;80;21202;-69
2020/12/24 03:57:49;;;;;;;3.03;1.63;;;;;;;-3.78;84.06;100711.03;1789952;80;21007;-68
2020/12/24 04:00:17;;;;;;;1.33;1.33;;;;;;;-3.80;84.08;100711.56;1789998;80;20973;-69
2020/12/24 04:02:45;;;;;;;1.67;1.30;;;;;;;-3.79;84.16;100711.94;1789925;80;21020;-69
2020/12/24 04:05:15;;;;;;;2.50;1.80;;;;;;;-3.80;84.24;100720.34;1789991;80;21028;-69
2020/12/24 04:07:43;;;;;;;5.17;3.10;;;;;;;-3.82;84.34;100712.47;1789912;80;21202;-69
2020/12/24 04:10:11;;;;;;;2.67;2.00;;;;;;;-3.81;84.42;100717.28;1789935;80;21021;-68
2020/12/24 04:12:39;;;;;;;1.17;1.17;;;;;;;-3.82;84.48;100720.87;1789978;80;20953;-70
2020/12/24 04:15:07;;;;;;;0.97;0.87;;;;;;;-3.83;84.55;100717.34;1789981;80;20941;-69
2020/12/24 04:17:35;;;;;;;2.50;1.50;;;;;;;-3.83;84.60;100720.45;1789919;80;21424;-70
2020/12/24 04:20:03;;;;;;;3.27;2.47;;;;;;;-3.84;84.67;100726.21;1808138;78;21655;-68
2020/12/24 04:22:31;;;;;;;3.20;1.53;;;;;;;-3.83;84.71;100723.95;1789839;79;20981;-69
2020/12/24 04:25:00;;;;;;;1.73;1.60;;;;;;;-3.80;84.77;100726.95;1813500;79;20989;-68
2020/12/24 04:27:29;;;;;;;1.80;1.47;;;;;;;-3.79;84.83;100730.44;1789974;80;20966;-69
2020/12/24 04:29:57;;;;;;;2.10;1.90;;;;;;;-3.79;84.89;100727.80;1798390;79;20999;-69
2020/12/24 04:32:25;;;;;;;3.93;3.30;;;;;;;-3.80;84.96;100724.77;1797561;79;21808;-68
2020/12/24 04:34:53;;;;;;;4.40;3.30;;;;;;;-3.80;85.01;100718.16;1797508;79;21022;-68
2020/12/24 04:37:21;;;;;;;5.30;3.37;;;;;;;-3.77;85.05;100712.30;1797583;79;21045;-69
2020/12/24 04:39:49;;;;;;;4.23;3.13;;;;;;;-3.76;85.12;100719.75;1797527;79;20994;-69
2020/12/24 04:42:19;;;;;;;5.77;3.37;;;;;;;-3.76;85.14;100720.60;1797487;79;21065;-69
2020/12/24 04:44:49;;;;;;;3.03;2.83;;;;;;;-3.73;85.16;100720.95;1791573;79;21198;-70
2020/12/24 04:47:18;;;;;;;1.93;1.83;;;;;;;-3.72;85.21;100715.61;1668075;84;20980;-69
2020/12/24 04:49:46;;;;;;;2.83;2.33;;;;;;;-3.70;85.23;100718.16;1668383;86;21599;-69
2020/12/24 04:52:14;;;;;;;3.27;3.00;;;;;;;-3.68;85.26;100719.84;1685114;85;21005;-69
2020/12/24 04:54:42;;;;;;;3.00;2.73;;;;;;;-3.68;85.34;100718.98;1685236;85;21566;-69
2020/12/24 04:57:11;;;;;;;5.60;3.77;;;;;;;-3.69;85.37;100725.18;1685138;85;21639;-69
2020/12/24 04:59:39;;;;;;;2.20;2.10;;;;;;;-3.70;85.42;100723.01;1685112;85;21583;-68
2020/12/24 05:02:07;;;;;;;2.30;2.20;;;;;;;-3.71;85.44;100723.92;1685050;85;21017;-70
2020/12/24 05:04:35;;;;;;;3.67;3.30;;;;;;;-3.72;85.53;100714.29;1685057;85;21515;-69
2020/12/24 05:07:06;;;;;;;2.93;2.63;;;;;;;-3.71;85.57;100713.81;1685194;85;21025;-69
2020/12/24 05:09:41;;;;;;;2.43;2.23;;;;;;;-3.69;85.61;100706.67;1845452;76;25987;-70
2020/12/24 05:12:09;;;;;;;5.60;3.70;;;;;;;-3.74;85.65;100702.04;1815470;79;20996;-69
2020/12/24 05:14:37;;;;;;;4.60;2.97;;;;;;;-3.73;85.71;100701.13;1815610;79;21020;-69
2020/12/24 05:17:07;;;;;;;3.60;3.30;;;;;;;-3.71;85.79;100696.64;1757632;79;20982;-70
2020/12/24 05:19:47;;;;;;;3.47;2.87;;;;;;;-3.70;85.84;100695.25;1796161;77;20993;-69
2020/12/24 05:22:18;;;;;;;2.47;2.27;;;;;;;-3.68;85.92;100693.88;1731227;82;21059;-68
2020/12/24 05:24:46;;;;;;;3.13;2.20;;;;;;;-3.69;85.97;100702.24;1741304;82;21462;-69
2020/12/24 05:27:17;;;;;;;3.27;2.97;;;;;;;-3.68;85.99;100701.80;1758779;81;21030;-70
2020/12/24 05:29:45;;;;;;;4.00;2.77;;;;;;;-3.69;86.04;100708.84;1785698;80;20981;-69
2020/12/24 05:32:13;;;;;;;3.73;2.63;;;;;;;-3.72;86.10;100706.36;1790223;80;20997;-69
2020/12/24 05:34:41;;;;;;;4.23;3.37;;;;;;;-3.71;86.18;100714.67;1790035;80;20977;-69
2020/12/24 05:37:17;;;;;;;2.57;2.40;;;;;;;-3.71;86.23;100705.89;1761998;80;20985;-72
2020/12/24 05:39:47;;;;;;;4.23;2.13;;;;;;;-3.71;86.29;100702.77;1790144;80;21363;-69
2020/12/24 05:42:15;;;;;;;3.40;2.93;;;;;;;-3.70;86.31;100697.02;1790063;80;21153;-70
2020/12/24 05:44:43;;;;;;;6.60;4.50;;;;;;;-3.70;86.39;100697.02;1790179;80;21455;-69
2020/12/24 05:47:11;;;;;;;3.60;3.30;;;;;;;-3.71;86.44;100696.64;1790173;80;21574;-70
2020/12/24 05:49:39;;;;;;;3.13;2.83;;;;;;;-3.72;86.51;100701.52;1790052;80;20950;-70
2020/12/24 05:52:06;;;;;;;4.13;2.53;;;;;;;-3.74;86.57;100698.92;1790305;80;22688;-69
2020/12/24 05:54:37;;;;;;;4.50;2.57;;;;;;;-3.73;86.63;100705.95;1789870;80;21570;-69
2020/12/24 05:57:04;;;;;;;3.30;3.00;;;;;;;-3.73;86.73;100701.13;1790042;80;21012;-69
2020/12/24 05:59:33;;;;;;;2.30;2.20;;;;;;;-3.70;86.80;100703.62;1789344;80;21171;-74
2020/12/24 06:02:17;;;;;;;3.00;2.73;;;;;;;-3.68;86.88;100706.62;1747165;82;20986;-74
2020/12/24 06:04:48;;;;;;;2.13;1.63;;;;;;;-3.65;86.93;100713.11;1769895;81;21846;-74
2020/12/24 06:07:27;;;;;;;4.13;2.43;;;;;;;-3.63;86.99;100709.05;1769755;81;20974;-74
2020/12/24 06:10:06;;;;;;;3.73;2.70;;;;;;;-3.60;86.99;100712.05;1763104;81;21001;-73
2020/12/24 06:12:50;;;;;;;3.87;3.10;;;;;;;-3.62;87.00;100714.28;1763337;80;20981;-74
2020/12/24 06:15:18;;;;;;;3.45;3.15;;;;;;;-3.61;87.02;100715.16;1773527;80;20909;-74
2020/12/24 06:17:47;;;;;;;5.13;3.50;;;;;;;-3.61;87.06;100713.84;1773353;80;21032;-75
2020/12/24 06:20:18;;;;;;;4.47;2.93;;;;;;;-3.62;87.08;100708.14;1772820;80;21562;-75
2020/12/24 06:22:46;;;;;;;4.07;3.27;;;;;;;-3.61;87.13;100711.20;1774311;80;21551;-74
2020/12/24 06:25:14;;;;;;;3.70;2.73;;;;;;;-3.58;87.17;100714.16;1777602;79;20989;-75
2020/12/24 06:27:49;;;;;;;6.90;4.57;;;;;;;-3.56;87.21;100708.34;1775479;80;21582;-74
2020/12/24 06:30:22;;;;;;;5.70;2.50;;;;;;;-3.58;87.22;100717.65;1789812;80;21191;-74
2020/12/24 06:35:38;;;;;;;4.77;3.47;;;;;;;-3.52;87.25;100717.41;1845522;75;24786;-63
2020/12/24 06:38:08;;;;;;;4.67;2.87;;;;;;;-3.54;87.27;100721.02;1815143;79;21051;-64
2020/12/24 06:40:39;;;;;;;3.13;2.67;;;;;;;-3.51;87.28;100722.23;1815266;77;22227;-62
2020/12/24 06:43:09;;;;;;;6.97;4.33;;;;;;;-3.47;87.29;100716.75;1728121;81;21012;-73
2020/12/24 06:45:50;;;;;;;3.20;2.37;;;;;;;-3.38;87.29;100714.19;1851857;76;25772;-64
2020/12/24 06:51:03;;;;;;;6.03;3.80;;;;;;;-3.39;87.23;100717.74;1843402;76;24008;-70
2020/12/24 06:53:38;;;;;;;3.30;3.00;;;;;;;-3.42;87.22;100722.30;1838639;78;20985;-73
2020/12/24 06:56:25;;;;;;;4.97;3.83;;;;;;;-3.40;87.22;100725.27;1838771;78;21183;-73
2020/12/24 06:59:00;;;;;;;5.17;3.80;;;;;;;-3.40;87.22;100724.41;1824126;78;21084;-73
2020/12/24 07:01:32;;;;;;;6.43;3.70;;;;;;;-3.41;87.21;100724.89;1835191;77;21559;-67
2020/12/24 07:04:02;;;;;;;4.15;2.58;;;;;;;-3.41;87.21;100729.33;1782627;80;21001;-67
2020/12/24 07:06:49;;;;;;;8.80;3.93;;;;;;;-3.40;87.19;100721.30;1821958;77;20997;-67
2020/12/24 07:09:26;;;;;;;3.53;3.20;;;;;;;-3.37;87.18;100717.20;1843164;76;21198;-68
2020/12/24 07:11:55;;;;;;;4.00;3.33;;;;;;;-3.36;87.20;100713.66;1782585;80;21577;-69
2020/12/24 07:14:32;;;;;;;5.07;4.23;;;;;;;-3.37;87.21;100711.92;1821329;78;21600;-67
2020/12/24 07:17:19;;;;;;;4.37;3.80;;;;;;;-3.37;87.21;100709.75;1782580;79;20985;-68
2020/12/24 07:19:50;;;;;;;3.73;3.37;;;;;;;-3.37;87.22;100713.71;1748602;80;21088;-68
2020/12/24 07:22:19;;;;;;;7.77;4.90;;;;;;;-3.36;87.20;100711.01;1855098;77;21117;-69
2020/12/24 07:24:57;;;;;;;8.97;4.53;;;;;;;-3.34;87.24;100709.62;1854867;77;21507;-68
2020/12/24 07:27:24;;;;;;;4.67;3.40;;;;;;;-3.31;87.28;100704.17;1823644;77;21020;-71
2020/12/24 07:29:52;;;;;;;6.90;3.87;;;;;;;-3.29;87.25;100707.64;1854565;77;21224;-70
2020/12/24 07:32:20;;;;;;;7.70;3.57;;;;;;;-3.25;87.26;100717.16;1855148;77;20946;-68
2020/12/24 07:34:48;;;;;;;5.77;4.23;;;;;;;-3.22;87.28;100721.00;1855073;77;21192;-67
2020/12/24 07:37:16;;;;;;;5.67;4.23;;;;;;;-3.19;87.27;100716.88;1854992;77;20957;-69
2020/12/24 07:39:53;;;;;;;6.97;4.70;;;;;;;-3.21;87.22;100712.59;1855118;77;21562;-69
2020/12/24 07:42:24;;;;;;;6.97;4.23;;;;;;;-3.19;87.21;100711.58;1854199;77;21021;-69
2020/12/24 07:44:53;;;;;;;8.83;5.00;;;;;;;-3.13;87.21;100719.73;1854282;77;21042;-69
2020/12/24 07:47:21;;;;;;;4.70;3.90;;;;;;;-3.11;87.18;100731.96;1853962;77;21470;-69
2020/12/24 07:49:54;;;;;;;6.43;4.50;;;;;;;-3.12;87.12;100715.67;1856311;77;21032;-77
2020/12/24 07:52:22;;;;;;;7.70;4.25;;;;;;;-3.12;87.06;100706.41;1785710;80;21681;-79
2020/12/24 07:54:50;;;;;;;5.40;4.23;;;;;;;-3.12;87.01;100715.67;1783843;80;21622;-74
2020/12/24 07:57:22;;;;;;;3.93;2.70;;;;;;;-3.10;86.99;100715.17;1784034;80;21704;-74
2020/12/24 08:00:00;;;;;;;4.33;3.87;;;;;;;-3.09;86.95;100712.91;1784946;80;21358;-76
2020/12/24 08:02:30;;;;;;;5.23;3.83;;;;;;;-3.06;86.93;100719.86;1783236;80;21610;-74
2020/12/24 08:04:58;;;;;;;2.97;2.53;;;;;;;-3.06;86.88;100698.70;1784418;80;21028;-75
2020/12/24 08:07:26;;;;;;;9.97;4.20;;;;;;;-3.09;86.78;100706.77;1784408;80;21120;-75
2020/12/24 08:09:54;;;;;;;4.83;3.47;;;;;;;-3.10;86.74;100707.67;1757361;80;21025;-74
2020/12/24 08:12:23;;;;;;;5.97;3.77;;;;;;;-3.09;86.70;100711.58;1758883;80;21028;-74
2020/12/24 08:14:51;;;;;;;6.00;3.60;;;;;;;-3.06;86.71;100709.28;1783934;80;21025;-73
2020/12/24 08:17:27;;;;;;;2.20;2.10;;;;;;;-3.05;86.67;100707.02;1784443;80;21084;-75
2020/12/24 08:20:07;;;;;;;6.90;3.57;;;;;;;-3.00;86.65;100702.38;1897214;75;24904;-73
2020/12/24 08:23:00;;;;;;;2.47;2.27;;;;;;;-3.04;86.61;100698.16;1875244;76;21008;-72
2020/12/24 08:25:29;;;;;;;5.20;3.90;;;;;;;-3.04;86.55;100693.34;1846136;76;21137;-74
2020/12/24 08:27:57;;;;;;;2.43;2.23;;;;;;;-3.03;86.53;100689.75;1789978;80;21661;-73
2020/12/24 08:30:27;;;;;;;5.93;3.97;;;;;;;-3.06;86.51;100691.61;1785603;80;21037;-73
2020/12/24 08:32:55;;;;;;;5.63;2.73;;;;;;;-3.02;86.54;100690.16;1790767;80;21054;-72
2020/12/24 08:35:23;;;;;;;2.87;2.60;;;;;;;-3.01;86.52;100682.59;1760685;80;20989;-74
2020/12/24 08:37:51;;;;;;;4.00;3.13;;;;;;;-3.03;86.50;100668.58;1785833;80;21665;-72
2020/12/24 08:40:26;;;;;;;3.37;3.00;;;;;;;-3.05;86.48;100675.27;1788480;80;21013;-72
2020/12/24 08:43:00;;;;;;;4.47;3.70;;;;;;;-3.07;86.43;100679.30;1788939;80;21034;-71
2020/12/24 08:45:28;;;;;;;6.67;3.77;;;;;;;-3.07;86.39;100677.97;1789281;80;21003;-72
2020/12/24 08:47:56;;;;;;;5.63;3.67;;;;;;;-3.06;86.41;100682.82;1818301;79;21005;-73
2020/12/24 08:50:34;;;;;;;4.73;3.50;;;;;;;-3.04;86.42;100680.96;1818512;77;21649;-71
2020/12/24 08:53:05;;;;;;;4.63;3.17;;;;;;;-3.04;86.43;100673.02;1752580;81;21025;-73
2020/12/24 08:55:33;;;;;;;3.50;3.23;;;;;;;-3.01;86.46;100671.58;1752554;81;21042;-76
2020/12/24 08:58:01;;;;;;;3.83;2.87;;;;;;;-2.97;86.51;100661.70;1752493;81;21132;-76
2020/12/24 09:00:29;;;;;;;3.10;2.80;;;;;;;-2.95;86.50;100666.46;1756214;81;22406;-70
2020/12/24 09:02:57;;;;;;;4.07;2.63;;;;;;;-2.95;86.47;100669.95;1752675;81;21211;-72
2020/12/24 09:05:25;;;;;;;4.17;3.00;;;;;;;-2.99;86.41;100659.12;1756030;81;21013;-72
2020/12/24 09:07:54;;;;;;;3.43;2.43;;;;;;;-3.01;86.36;100658.78;1789538;79;21036;-76
2020/12/24 09:10:26;;;;;;;3.37;2.63;;;;;;;-2.99;86.39;100654.27;1818521;78;21464;-76
2020/12/24 09:13:01;;;;;;;4.50;3.22;;;;;;;-2.95;86.43;100655.88;1818131;78;21009;-72
2020/12/24 09:15:29;;;;;;;4.50;3.17;;;;;;;-2.92;86.43;100658.36;1817730;79;21196;-70
2020/12/24 09:18:00;;;;;;;6.37;4.03;;;;;;;-2.96;86.42;100661.61;1817702;79;21017;-69
2020/12/24 09:20:30;;;;;;;3.10;2.83;;;;;;;-2.97;86.42;100671.82;1782762;79;21005;-69
2020/12/24 09:23:10;;;;;;;6.63;3.30;;;;;;;-2.98;86.42;100666.59;1768497;81;21042;-70
2020/12/24 09:25:44;;;;;;;6.47;3.47;;;;;;;-3.01;86.41;100664.95;1768400;81;20926;-70
2020/12/24 09:28:28;;;;;;;2.03;1.93;;;;;;;-3.02;86.46;100652.64;1781338;80;21375;-71
2020/12/24 09:31:00;;;;;;;3.83;2.70;;;;;;;-3.01;86.47;100649.52;1780868;80;20970;-72
2020/12/24 09:33:28;;;;;;;2.90;2.37;;;;;;;-3.03;86.44;100658.00;1793656;80;20953;-69
2020/12/24 09:35:56;;;;;;;2.77;2.57;;;;;;;-3.06;86.43;100652.39;1820008;78;21621;-70
2020/12/24 09:38:26;;;;;;;6.83;3.17;;;;;;;-3.07;86.45;100657.28;1781223;79;22277;-69
2020/12/24 09:40:54;;;;;;;4.70;2.97;;;;;;;-3.10;86.54;100656.09;1793622;80;21412;-70
2020/12/24 09:43:22;;;;;;;4.47;2.87;;;;;;;-3.08;86.64;100653.78;1793374;80;20898;-72
2020/12/24 09:45:50;;;;;;;3.77;3.23;;;;;;;-3.04;86.72;100657.63;1793475;80;20968;-69
2020/12/24 09:48:17;;;;;;;4.73;3.70;;;;;;;-3.04;86.71;100657.63;1836761;77;21646;-71
2020/12/24 09:50:45;;;;;;;3.53;2.47;;;;;;;-3.01;86.74;100653.49;1842868;77;21006;-71
2020/12/24 09:53:13;;;;;;;3.30;2.40;;;;;;;-2.97;86.75;100645.83;1843087;77;21443;-72
2020/12/24 09:55:41;;;;;;;3.90;3.10;;;;;;;-2.97;86.68;100647.16;1803559;79;21737;-70
2020/12/24 09:58:09;;;;;;;3.03;1.73;;;;;;;-3.00;86.62;100649.93;1824445;78;21036;-70
2020/12/24 10:00:37;;;;;;;3.00;1.87;;;;;;;-3.04;86.54;100639.95;1792004;80;20997;-73
2020/12/24 10:03:05;;;;;;;4.13;2.40;;;;;;;-3.07;86.51;100650.66;1797795;78;21008;-71
2020/12/24 10:05:32;;;;;;;4.20;1.83;;;;;;;-3.09;86.51;100645.44;1792507;80;21033;-69
2020/12/24 10:08:00;;;;;;;1.83;1.73;;;;;;;-3.10;86.53;100635.80;1792969;80;21048;-69
2020/12/24 10:10:28;;;;;;;3.13;2.13;;;;;;;-3.08;86.56;100643.20;1793244;80;21019;-70
2020/12/24 10:12:56;;;;;;;6.43;3.27;;;;;;;-3.07;86.57;100638.76;1788540;80;21010;-71
2020/12/24 10:15:24;;;;;;;3.30;2.80;;;;;;;-3.08;86.60;100633.05;1804684;78;21005;-70
2020/12/24 10:17:51;;;;;;;2.50;2.30;;;;;;;-3.04;86.63;100634.66;1824649;78;21804;-70
2020/12/24 10:20:19;;;;;;;3.23;2.63;;;;;;;-3.02;86.67;100636.77;1819918;78;21132;-71
2020/12/24 10:22:47;;;;;;;2.90;2.47;;;;;;;-3.00;86.69;100638.02;1789405;80;21005;-72
2020/12/24 10:25:15;;;;;;;2.80;2.60;;;;;;;-2.99;86.71;100638.40;1816760;78;21005;-74
2020/12/24 10:27:44;;;;;;;4.03;2.60;;;;;;;-2.94;86.75;100625.38;1813201;78;20927;-70
2020/12/24 10:30:12;;;;;;;2.33;2.17;;;;;;;-2.90;86.80;100621.66;1814153;78;22052;-73
2020/12/24 10:32:40;;;;;;;2.53;2.33;;;;;;;-2.88;86.82;100621.58;1814842;78;21040;-74
2020/12/24 10:35:08;;;;;;;2.50;2.30;;;;;;;-2.86;86.83;100625.86;1806128;78;21000;-77
2020/12/24 10:37:36;;;;;;;6.33;4.57;;;;;;;-2.83;86.86;100622.67;1768373;80;21006;-74
2020/12/24 10:40:05;;;;;;;3.50;3.07;;;;;;;-2.80;86.89;100619.89;1793526;80;21056;-76
2020/12/24 10:42:36;;;;;;;3.60;3.20;;;;;;;-2.78;86.91;100620.23;1826248;78;22517;-79
2020/12/24 10:45:04;;;;;;;3.77;2.93;;;;;;;-2.78;86.85;100604.80;1793395;80;20926;-71
2020/12/24 10:47:32;;;;;;;4.07;2.60;;;;;;;-2.82;86.87;100613.81;1825466;78;20954;-73
2020/12/24 10:50:00;;;;;;;4.40;3.17;;;;;;;-2.85;86.87;100605.57;1792508;80;21011;-73
2020/12/24 10:52:28;;;;;;;4.07;3.33;;;;;;;-2.84;86.94;100610.39;1825836;78;20994;-73
2020/12/24 10:54:58;;;;;;;3.27;2.97;;;;;;;-2.86;87.02;100606.48;1790772;80;21669;-74
2020/12/24 10:57:26;;;;;;;2.73;2.53;;;;;;;-2.87;87.09;100604.75;1817015;78;21029;-74
2020/12/24 10:59:53;;;;;;;2.90;2.43;;;;;;;-2.89;87.17;100604.83;1807141;79;21925;-73
2020/12/24 11:02:21;;;;;;;2.90;2.07;;;;;;;-2.87;87.28;100594.17;1793280;80;21016;-74
2020/12/24 11:04:49;;;;;;;2.10;1.37;;;;;;;-2.89;87.36;100600.85;1775639;80;20965;-75
2020/12/24 11:07:18;;;;;;;4.67;3.07;;;;;;;-2.89;87.45;100598.20;1775731;80;21574;-75
2020/12/24 11:09:47;;;;;;;3.30;3.00;;;;;;;-2.89;87.50;100593.39;1775434;80;21005;-73
2020/12/24 11:12:14;;;;;;;2.83;2.53;;;;;;;-2.88;87.60;100597.29;1775539;80;21033;-74
2020/12/24 11:14:42;;;;;;;3.33;3.00;;;;;;;-2.86;87.68;100589.28;1775463;80;20966;-72
2020/12/24 11:17:12;;;;;;;4.43;3.97;;;;;;;-2.84;87.74;100587.89;1775957;80;20930;-72
2020/12/24 11:19:41;;;;;;;4.30;3.00;;;;;;;-2.83;87.82;100597.53;1786977;80;20959;-76
2020/12/24 11:22:09;;;;;;;6.30;3.30;;;;;;;-2.80;87.87;100596.07;1793935;80;21017;-72
2020/12/24 11:24:37;;;;;;;3.60;2.73;;;;;;;-2.80;87.91;100593.42;1791414;80;21036;-73
2020/12/24 11:27:05;;;;;;;3.80;3.27;;;;;;;-2.80;88.00;100590.78;1792863;80;21037;-75
2020/12/24 11:29:33;;;;;;;5.70;3.77;;;;;;;-2.78;88.06;100591.55;1788789;79;20909;-73
2020/12/24 11:32:01;;;;;;;4.87;2.73;;;;;;;-2.76;88.11;100593.22;1808925;79;21706;-73
2020/12/24 11:34:29;;;;;;;4.23;3.03;;;;;;;-2.75;88.18;100589.63;1795928;79;21088;-73
2020/12/24 11:36:58;;;;;;;7.40;3.43;;;;;;;-2.72;88.27;100588.64;1789837;80;20986;-74
2020/12/24 11:39:28;;;;;;;3.10;2.80;;;;;;;-2.68;88.36;100580.93;1791534;79;21021;-73